Time;durP1;ratioP1;P1;durP2;ratioP2;P2;SDS_P1;SDS_P2;PMS_P1;PMS_P2;Temp;Humidity;BMP_temperature;BMP_pressure;BME280_temperature;BME280_humidity;BME280_pressure;Samples;Min_cycle;Max_cycle;Signal;HPM_P1;HPM_P2
2022/01/13 00:00:26;;;;;;;84.27;40.43;;;;;;;;;;2048945;29;20178;-57
2022/01/13 00:01:31;;;;;;;80.93;38.47;;;;;;;;;;2049547;28;20206;-60
2022/01/13 00:02:34;;;;;;;84.27;36.30;;;;;;;;;;2049738;28;20282;-57
2022/01/13 00:03:34;;;;;;;76.10;34.27;;;;;;;;;;2049503;29;20214;-58
2022/01/13 00:04:35;;;;;;;76.27;35.40;;;;;;;;;;2049346;28;20542;-58
2022/01/13 00:05:35;;;;;;;80.30;34.67;;;;;;;;;;2056223;28;20194;-59
2022/01/13 00:06:36;;;;;;;82.13;38.07;;;;;;;;;;2056425;28;20162;-54
2022/01/13 00:07:36;;;;;;;89.20;39.43;;;;;;;;;;2049647;28;20659;-58
2022/01/13 00:08:37;;;;;;;75.40;37.83;;;;;;;;;;2049314;28;20722;-61
2022/01/13 00:09:37;;;;;;;88.70;38.57;;;;;;;;;;2049733;28;20175;-57
2022/01/13 00:10:37;;;;;;;91.83;41.17;;;;;;;;;;2048193;28;20650;-58
2022/01/13 00:11:38;;;;;;;79.30;36.97;;;;;;;;;;2048784;28;20178;-58
2022/01/13 00:12:42;;;;;;;86.63;38.73;;;;;;;;;;2049281;28;20190;-57
2022/01/13 00:14:38;;;;;;;102.67;41.77;;;;;;;;;;2049900;28;20631;-57
2022/01/13 00:17:27;;;;;;;92.47;40.07;;;;;;;;;;2049266;28;20266;-58
2022/01/13 00:18:48;;;;;;;94.43;37.87;;;;;;;;;;2049422;28;20177;-58
2022/01/13 00:19:57;;;;;;;95.67;40.33;;;;;;;;;;2043205;29;20156;-58
2022/01/13 00:21:12;;;;;;;103.77;43.93;;;;;;;;;;2049888;28;20529;-58
2022/01/13 00:22:26;;;;;;;85.57;40.43;;;;;;;;;;2049291;28;20174;-59
2022/01/13 00:23:47;;;;;;;92.17;39.63;;;;;;;;;;2049789;28;20434;-58
2022/01/13 00:24:55;;;;;;;99.23;40.73;;;;;;;;;;2046492;29;20159;-58
2022/01/13 00:25:57;;;;;;;108.13;42.70;;;;;;;;;;2049210;28;20667;-59
2022/01/13 00:26:58;;;;;;;102.27;44.00;;;;;;;;;;2049054;28;20608;-58
2022/01/13 00:28:02;;;;;;;101.67;44.30;;;;;;;;;;2048712;28;20583;-59
2022/01/13 00:29:03;;;;;;;99.70;44.47;;;;;;;;;;2048984;28;20238;-57
2022/01/13 00:30:04;;;;;;;112.63;44.87;;;;;;;;;;2048628;28;20217;-57
2022/01/13 00:31:06;;;;;;;106.70;47.27;;;;;;;;;;2049248;28;20181;-59
2022/01/13 00:32:07;;;;;;;106.53;42.60;;;;;;;;;;2048831;28;20232;-58
2022/01/13 00:33:10;;;;;;;103.67;42.17;;;;;;;;;;2049159;28;20651;-59
2022/01/13 00:34:11;;;;;;;102.47;46.37;;;;;;;;;;2048956;28;20551;-61
2022/01/13 00:35:11;;;;;;;113.57;46.07;;;;;;;;;;2049183;28;20417;-57
2022/01/13 00:36:12;;;;;;;105.70;43.87;;;;;;;;;;2048689;28;20643;-60
2022/01/13 00:37:12;;;;;;;110.83;46.93;;;;;;;;;;2048609;28;20210;-60
2022/01/13 00:38:12;;;;;;;106.27;46.57;;;;;;;;;;2049271;28;20191;-58
2022/01/13 00:39:14;;;;;;;119.57;47.10;;;;;;;;;;2048889;28;20183;-60
2022/01/13 00:40:14;;;;;;;100.87;40.17;;;;;;;;;;2048678;29;20183;-58
2022/01/13 00:41:14;;;;;;;111.00;46.57;;;;;;;;;;2048632;28;20183;-57
2022/01/13 00:42:15;;;;;;;105.97;46.80;;;;;;;;;;2048683;29;20183;-58
2022/01/13 00:43:15;;;;;;;119.50;48.03;;;;;;;;;;2048762;28;20205;-57
2022/01/13 00:44:20;;;;;;;115.57;46.77;;;;;;;;;;2049299;28;20187;-57
2022/01/13 00:45:21;;;;;;;96.43;41.43;;;;;;;;;;2048967;28;20175;-58
2022/01/13 00:46:23;;;;;;;112.50;44.23;;;;;;;;;;2048653;28;20416;-59
2022/01/13 00:47:23;;;;;;;113.70;47.47;;;;;;;;;;2038216;29;20181;-59
2022/01/13 00:48:24;;;;;;;120.07;47.03;;;;;;;;;;2046892;29;20234;-60
2022/01/13 00:49:24;;;;;;;126.30;49.10;;;;;;;;;;2048582;29;20207;-59
2022/01/13 00:50:25;;;;;;;125.27;48.07;;;;;;;;;;2048500;28;20187;-61
2022/01/13 00:51:25;;;;;;;123.00;49.50;;;;;;;;;;2049247;28;20227;-61
2022/01/13 00:52:25;;;;;;;119.53;50.17;;;;;;;;;;2044577;29;20222;-58
2022/01/13 00:53:25;;;;;;;130.03;50.67;;;;;;;;;;2046666;29;20175;-59
2022/01/13 00:54:26;;;;;;;122.63;45.37;;;;;;;;;;2047676;29;20238;-61
2022/01/13 00:55:33;;;;;;;117.57;47.23;;;;;;;;;;2048230;28;20183;-59
2022/01/13 00:56:33;;;;;;;128.07;46.60;;;;;;;;;;2048715;29;20391;-59
2022/01/13 00:57:34;;;;;;;129.10;49.40;;;;;;;;;;2048951;28;20685;-58
2022/01/13 00:58:35;;;;;;;115.83;48.03;;;;;;;;;;2049378;28;20179;-59
2022/01/13 00:59:35;;;;;;;119.47;47.10;;;;;;;;;;2048883;28;20183;-61
2022/01/13 01:00:36;;;;;;;136.93;49.47;;;;;;;;;;2048972;29;20237;-59
2022/01/13 01:01:37;;;;;;;123.67;47.33;;;;;;;;;;2049138;28;20257;-61
2022/01/13 01:02:37;;;;;;;120.37;46.53;;;;;;;;;;2041288;29;20651;-59
2022/01/13 01:03:38;;;;;;;118.00;44.57;;;;;;;;;;2048986;28;20195;-59
2022/01/13 01:04:38;;;;;;;123.30;48.73;;;;;;;;;;2049508;28;20186;-60
2022/01/13 01:05:38;;;;;;;104.53;40.37;;;;;;;;;;2049476;28;20198;-60
2022/01/13 01:06:39;;;;;;;99.53;41.63;;;;;;;;;;2049952;28;20238;-61
2022/01/13 01:07:39;;;;;;;125.63;44.53;;;;;;;;;;2049768;28;20210;-60
2022/01/13 01:08:40;;;;;;;109.67;44.97;;;;;;;;;;2049600;28;20218;-60
2022/01/13 01:09:47;;;;;;;123.13;47.43;;;;;;;;;;2049298;28;20539;-58
2022/01/13 01:10:50;;;;;;;116.73;45.63;;;;;;;;;;2049321;28;20668;-60
2022/01/13 01:11:52;;;;;;;119.90;48.33;;;;;;;;;;2049336;28;20421;-60
2022/01/13 01:12:53;;;;;;;115.43;45.60;;;;;;;;;;2049475;28;20544;-59
2022/01/13 01:13:53;;;;;;;121.57;48.10;;;;;;;;;;2049320;28;20175;-60
2022/01/13 01:14:57;;;;;;;126.23;47.87;;;;;;;;;;2049726;28;20266;-62
2022/01/13 01:16:00;;;;;;;120.87;44.97;;;;;;;;;;2049842;28;20163;-58
2022/01/13 01:17:00;;;;;;;117.30;46.17;;;;;;;;;;2049183;28;20202;-55
2022/01/13 01:18:08;;;;;;;106.20;41.90;;;;;;;;;;2048863;28;20282;-57
2022/01/13 01:19:10;;;;;;;108.10;45.27;;;;;;;;;;2049743;28;20163;-60
2022/01/13 01:20:11;;;;;;;102.27;42.80;;;;;;;;;;2048868;28;20191;-57
2022/01/13 01:23:24;;;;;;;91.60;40.20;;;;;;;;;;2049570;28;20170;-60
2022/01/13 01:26:40;;;;;;;112.17;44.97;;;;;;;;;;2048585;28;20187;-59
2022/01/13 01:27:45;;;;;;;103.50;42.50;;;;;;;;;;2040937;29;20569;-56
2022/01/13 01:28:52;;;;;;;105.40;41.33;;;;;;;;;;2049138;29;20206;-57
2022/01/13 01:29:57;;;;;;;98.90;42.00;;;;;;;;;;2048599;28;20627;-58
2022/01/13 01:30:57;;;;;;;110.33;45.43;;;;;;;;;;2048363;29;20675;-60
2022/01/13 01:31:58;;;;;;;118.10;44.30;;;;;;;;;;2048810;29;20238;-59
2022/01/13 01:32:58;;;;;;;121.13;45.83;;;;;;;;;;2049392;29;20179;-58
2022/01/13 01:35:04;;;;;;;107.63;46.63;;;;;;;;;;2049145;28;20179;-56
2022/01/13 01:36:05;;;;;;;116.10;45.83;;;;;;;;;;2049712;28;20187;-57
2022/01/13 01:37:17;;;;;;;108.90;44.47;;;;;;;;;;2049335;28;20212;-59
2022/01/13 01:38:19;;;;;;;121.93;48.30;;;;;;;;;;2049862;28;20159;-59
2022/01/13 01:39:19;;;;;;;107.17;43.87;;;;;;;;;;2049872;28;20780;-59
2022/01/13 01:40:20;;;;;;;105.37;43.63;;;;;;;;;;2049197;28;20408;-59
2022/01/13 01:41:20;;;;;;;107.90;43.77;;;;;;;;;;2050204;28;20258;-55
2022/01/13 01:42:22;;;;;;;108.40;45.00;;;;;;;;;;2050080;29;20206;-58
2022/01/13 01:43:22;;;;;;;112.27;46.30;;;;;;;;;;2049722;29;20183;-57
2022/01/13 01:44:29;;;;;;;105.53;40.47;;;;;;;;;;2049298;28;20179;-58
2022/01/13 01:45:33;;;;;;;107.03;42.60;;;;;;;;;;2048820;29;20237;-56
2022/01/13 01:46:34;;;;;;;92.97;38.67;;;;;;;;;;2049689;28;20472;-60
2022/01/13 01:47:35;;;;;;;109.43;41.90;;;;;;;;;;2049951;28;20566;-60
2022/01/13 01:48:36;;;;;;;98.23;43.83;;;;;;;;;;2049619;28;20258;-57
2022/01/13 01:49:41;;;;;;;119.87;44.60;;;;;;;;;;2048975;28;20310;-56
2022/01/13 01:50:42;;;;;;;113.10;43.70;;;;;;;;;;2050080;28;20340;-59
2022/01/13 01:51:42;;;;;;;108.83;45.13;;;;;;;;;;2058097;28;20208;-62
2022/01/13 01:52:43;;;;;;;102.13;43.90;;;;;;;;;;2050899;28;20167;-58
2022/01/13 01:53:44;;;;;;;107.00;42.10;;;;;;;;;;2051267;28;20183;-58
2022/01/13 01:54:44;;;;;;;113.07;44.57;;;;;;;;;;2051362;28;20258;-59
2022/01/13 01:55:45;;;;;;;107.27;44.33;;;;;;;;;;2050430;28;20186;-59
2022/01/13 01:56:45;;;;;;;96.50;41.47;;;;;;;;;;2049380;28;20206;-59
2022/01/13 01:57:47;;;;;;;99.20;42.30;;;;;;;;;;2049407;28;20203;-58
2022/01/13 01:58:48;;;;;;;106.40;43.83;;;;;;;;;;2049280;28;20213;-58
2022/01/13 01:59:48;;;;;;;104.60;42.37;;;;;;;;;;2049282;29;20182;-57
2022/01/13 02:00:49;;;;;;;108.63;41.83;;;;;;;;;;2046815;28;20256;-60
2022/01/13 02:01:50;;;;;;;104.77;43.77;;;;;;;;;;2049694;29;20179;-58
2022/01/13 02:02:50;;;;;;;96.10;37.70;;;;;;;;;;2048963;28;20197;-56
2022/01/13 02:03:50;;;;;;;100.50;41.23;;;;;;;;;;2047910;28;20185;-58
2022/01/13 02:04:51;;;;;;;98.63;40.33;;;;;;;;;;2048046;29;20183;-60
2022/01/13 02:05:52;;;;;;;107.53;42.80;;;;;;;;;;2049751;29;20179;-58
2022/01/13 02:06:54;;;;;;;102.37;42.03;;;;;;;;;;2048331;28;20183;-59
2022/01/13 02:07:54;;;;;;;96.57;39.60;;;;;;;;;;2048483;28;20210;-60
2022/01/13 02:08:56;;;;;;;103.63;40.43;;;;;;;;;;2048947;29;20187;-59
2022/01/13 02:09:56;;;;;;;102.77;40.93;;;;;;;;;;2047660;29;20194;-59
2022/01/13 02:10:57;;;;;;;98.27;39.60;;;;;;;;;;2048115;29;20191;-58
2022/01/13 02:12:04;;;;;;;104.83;41.53;;;;;;;;;;2048377;28;20171;-56
2022/01/13 02:13:08;;;;;;;101.80;41.10;;;;;;;;;;2049166;28;20214;-58
2022/01/13 02:14:30;;;;;;;101.30;40.03;;;;;;;;;;2044552;29;20675;-57
2022/01/13 02:15:34;;;;;;;94.83;39.30;;;;;;;;;;2049104;28;20199;-58
2022/01/13 02:17:39;;;;;;;98.17;39.60;;;;;;;;;;2049634;28;20425;-60
2022/01/13 02:18:39;;;;;;;96.07;41.13;;;;;;;;;;2048336;28;20636;-59
2022/01/13 02:19:41;;;;;;;109.13;43.53;;;;;;;;;;2041122;28;20187;-60
2022/01/13 02:20:43;;;;;;;106.73;43.60;;;;;;;;;;2034100;29;20184;-60
2022/01/13 02:21:43;;;;;;;112.37;43.17;;;;;;;;;;2051123;28;20175;-58
2022/01/13 02:22:43;;;;;;;94.43;40.90;;;;;;;;;;2049200;28;20699;-58
2022/01/13 02:23:44;;;;;;;97.47;41.90;;;;;;;;;;2049857;29;20265;-59
2022/01/13 02:24:44;;;;;;;107.67;41.57;;;;;;;;;;2049082;28;20193;-58
2022/01/13 02:25:44;;;;;;;99.73;41.53;;;;;;;;;;2049361;29;20258;-59
2022/01/13 02:26:45;;;;;;;120.13;42.53;;;;;;;;;;2049080;29;20686;-60
2022/01/13 02:27:45;;;;;;;105.20;43.93;;;;;;;;;;2049342;28;20209;-60
2022/01/13 02:28:46;;;;;;;103.07;42.30;;;;;;;;;;2050145;29;20273;-57
2022/01/13 02:29:46;;;;;;;101.33;41.70;;;;;;;;;;2050450;29;20233;-61
2022/01/13 02:30:46;;;;;;;99.03;40.23;;;;;;;;;;2050491;29;20281;-61
2022/01/13 02:31:46;;;;;;;107.67;43.97;;;;;;;;;;2050393;28;20186;-60
2022/01/13 02:32:47;;;;;;;93.17;39.63;;;;;;;;;;2051125;28;20258;-59
2022/01/13 02:33:47;;;;;;;105.00;40.67;;;;;;;;;;2051484;28;20339;-60
2022/01/13 02:34:48;;;;;;;96.50;40.13;;;;;;;;;;2050525;28;20202;-59
2022/01/13 02:35:48;;;;;;;98.27;40.80;;;;;;;;;;2050000;28;20307;-58
2022/01/13 02:36:49;;;;;;;100.20;41.23;;;;;;;;;;2049519;28;20179;-58
2022/01/13 02:37:49;;;;;;;99.13;39.97;;;;;;;;;;2050432;28;20246;-58
2022/01/13 02:38:51;;;;;;;93.77;37.23;;;;;;;;;;2049020;28;20567;-59
2022/01/13 02:39:51;;;;;;;103.17;41.23;;;;;;;;;;2049101;29;20318;-60
2022/01/13 02:40:55;;;;;;;93.53;39.53;;;;;;;;;;2049660;28;20593;-59
2022/01/13 02:41:56;;;;;;;97.33;37.20;;;;;;;;;;2049759;28;20179;-57
2022/01/13 02:42:56;;;;;;;113.83;42.63;;;;;;;;;;2049416;28;20550;-58
2022/01/13 02:43:58;;;;;;;99.10;40.60;;;;;;;;;;2049216;29;20463;-57
2022/01/13 02:45:03;;;;;;;98.47;41.60;;;;;;;;;;2050110;28;20187;-59
2022/01/13 02:46:29;;;;;;;106.13;40.20;;;;;;;;;;2049734;28;20528;-58
2022/01/13 02:48:42;;;;;;;93.50;35.47;;;;;;;;;;2046098;28;20449;-57
2022/01/13 02:49:42;;;;;;;89.27;38.67;;;;;;;;;;2049762;28;20275;-57
2022/01/13 02:50:42;;;;;;;97.20;39.40;;;;;;;;;;2048842;29;20660;-57
2022/01/13 02:51:44;;;;;;;98.90;39.97;;;;;;;;;;2049117;29;20222;-55
2022/01/13 02:52:45;;;;;;;99.53;38.60;;;;;;;;;;2049055;29;20226;-58
2022/01/13 02:53:45;;;;;;;103.27;40.57;;;;;;;;;;2040707;29;20648;-56
2022/01/13 02:54:46;;;;;;;98.87;39.07;;;;;;;;;;2049053;29;20163;-57
2022/01/13 02:55:46;;;;;;;97.37;40.70;;;;;;;;;;2049383;29;20567;-57
2022/01/13 02:56:46;;;;;;;113.67;41.80;;;;;;;;;;2049594;29;20170;-54
2022/01/13 02:57:46;;;;;;;102.73;39.33;;;;;;;;;;2066649;22;20642;-64
2022/01/13 02:58:47;;;;;;;91.83;36.10;;;;;;;;;;2064181;28;20177;-63
2022/01/13 02:59:47;;;;;;;123.50;43.67;;;;;;;;;;2044879;28;20206;-63
2022/01/13 03:00:47;;;;;;;116.37;43.17;;;;;;;;;;2049116;28;20533;-63
2022/01/13 03:01:48;;;;;;;124.40;43.03;;;;;;;;;;2048104;28;20179;-63
2022/01/13 03:02:48;;;;;;;122.47;44.83;;;;;;;;;;2044225;29;20648;-62
2022/01/13 03:03:48;;;;;;;114.90;42.43;;;;;;;;;;2048862;28;22238;-58
2022/01/13 03:04:49;;;;;;;118.70;39.80;;;;;;;;;;2049612;28;20179;-60
2022/01/13 03:05:49;;;;;;;117.50;43.23;;;;;;;;;;2048890;28;20188;-59
2022/01/13 03:06:49;;;;;;;107.13;40.97;;;;;;;;;;2049551;28;20265;-63
2022/01/13 03:07:52;;;;;;;117.33;41.47;;;;;;;;;;2048443;28;20211;-63
2022/01/13 03:08:53;;;;;;;130.73;42.40;;;;;;;;;;2049253;28;20199;-61
2022/01/13 03:09:53;;;;;;;124.73;44.07;;;;;;;;;;2049749;28;20171;-63
2022/01/13 03:10:54;;;;;;;126.33;43.90;;;;;;;;;;2049032;28;20218;-61
2022/01/13 03:11:54;;;;;;;126.37;45.13;;;;;;;;;;2049530;28;20195;-62
2022/01/13 03:12:56;;;;;;;137.17;45.93;;;;;;;;;;2049711;28;20220;-63
2022/01/13 03:13:56;;;;;;;109.63;39.43;;;;;;;;;;2049324;28;20266;-62
2022/01/13 03:14:57;;;;;;;119.60;43.20;;;;;;;;;;2047095;28;20460;-63
2022/01/13 03:15:57;;;;;;;127.13;43.70;;;;;;;;;;2049233;28;20177;-64
2022/01/13 03:16:57;;;;;;;122.50;47.07;;;;;;;;;;2047040;29;20205;-64
2022/01/13 03:17:58;;;;;;;123.87;45.63;;;;;;;;;;2040142;29;20198;-62
2022/01/13 03:18:58;;;;;;;120.07;42.37;;;;;;;;;;2046978;29;20230;-63
2022/01/13 03:19:58;;;;;;;126.10;43.10;;;;;;;;;;2047884;29;20194;-59
2022/01/13 03:20:58;;;;;;;145.60;48.67;;;;;;;;;;2049352;28;20737;-63
2022/01/13 03:21:58;;;;;;;158.43;50.07;;;;;;;;;;2048871;28;20257;-61
2022/01/13 03:22:59;;;;;;;119.90;42.80;;;;;;;;;;2048709;28;20185;-64
2022/01/13 03:23:59;;;;;;;133.57;46.20;;;;;;;;;;2049182;28;20278;-63
2022/01/13 03:25:00;;;;;;;128.93;46.67;;;;;;;;;;2049456;28;20611;-63
2022/01/13 03:26:00;;;;;;;141.93;49.20;;;;;;;;;;2048965;29;20226;-63
2022/01/13 03:27:02;;;;;;;154.63;49.73;;;;;;;;;;2049277;28;20186;-62
2022/01/13 03:28:13;;;;;;;153.90;50.43;;;;;;;;;;2049315;28;20238;-64
2022/01/13 03:30:14;;;;;;;197.00;59.87;;;;;;;;;;2040404;28;20578;-63
2022/01/13 03:31:14;;;;;;;175.27;53.77;;;;;;;;;;2048384;29;20187;-62
2022/01/13 03:32:15;;;;;;;151.87;51.20;;;;;;;;;;2047611;29;20178;-61
2022/01/13 03:33:15;;;;;;;159.27;51.00;;;;;;;;;;2048954;28;20190;-62
2022/01/13 03:34:16;;;;;;;161.70;51.73;;;;;;;;;;2047915;28;20266;-61
2022/01/13 03:35:17;;;;;;;176.43;56.43;;;;;;;;;;2049077;28;20198;-62
2022/01/13 03:36:17;;;;;;;180.83;57.80;;;;;;;;;;2048096;28;20918;-55
2022/01/13 03:37:17;;;;;;;169.73;53.93;;;;;;;;;;2046554;29;20720;-61
2022/01/13 03:38:18;;;;;;;167.17;54.87;;;;;;;;;;2046995;28;20199;-63
2022/01/13 03:39:18;;;;;;;147.63;49.73;;;;;;;;;;2048560;28;20525;-64
2022/01/13 03:40:18;;;;;;;162.97;55.20;;;;;;;;;;2049716;28;20171;-63
2022/01/13 03:41:19;;;;;;;158.23;53.80;;;;;;;;;;2050419;28;20637;-63
2022/01/13 03:42:20;;;;;;;170.93;55.93;;;;;;;;;;2050077;28;20171;-62
2022/01/13 03:43:20;;;;;;;182.57;57.27;;;;;;;;;;2047404;29;20218;-61
2022/01/13 03:44:29;;;;;;;156.20;55.20;;;;;;;;;;2049580;28;20186;-63
2022/01/13 03:45:32;;;;;;;181.23;59.27;;;;;;;;;;2047989;28;20171;-58
2022/01/13 03:46:33;;;;;;;183.00;56.97;;;;;;;;;;2049299;28;20234;-62
2022/01/13 03:47:34;;;;;;;165.87;53.67;;;;;;;;;;2048028;28;20636;-60
2022/01/13 03:48:34;;;;;;;189.77;57.50;;;;;;;;;;2048549;29;20241;-59
2022/01/13 03:49:34;;;;;;;169.70;53.67;;;;;;;;;;2044486;29;20691;-59
2022/01/13 03:50:34;;;;;;;177.10;55.03;;;;;;;;;;2043584;29;20203;-62
2022/01/13 03:51:59;;;;;;;172.60;54.23;;;;;;;;;;2049225;29;20236;-61
2022/01/13 03:53:01;;;;;;;153.67;47.47;;;;;;;;;;2044622;29;20618;-64
2022/01/13 03:54:19;;;;;;;163.63;54.33;;;;;;;;;;2048563;29;20511;-63
2022/01/13 03:55:40;;;;;;;142.87;48.90;;;;;;;;;;2046025;29;20204;-62
2022/01/13 03:56:40;;;;;;;147.23;46.40;;;;;;;;;;2047373;29;20187;-63
2022/01/13 03:57:58;;;;;;;132.77;45.30;;;;;;;;;;2042171;28;20211;-61
2022/01/13 03:59:22;;;;;;;156.23;52.53;;;;;;;;;;2043791;29;20518;-63
2022/01/13 04:00:55;;;;;;;171.07;55.10;;;;;;;;;;2048744;28;20230;-64
2022/01/13 04:01:58;;;;;;;128.00;46.43;;;;;;;;;;2044641;28;20441;-63
2022/01/13 04:02:58;;;;;;;159.83;51.03;;;;;;;;;;2046393;29;20273;-63
2022/01/13 04:03:58;;;;;;;144.30;47.43;;;;;;;;;;2048352;28;20439;-63
2022/01/13 04:04:59;;;;;;;163.00;51.47;;;;;;;;;;2049176;28;20179;-62
2022/01/13 04:05:59;;;;;;;163.80;54.23;;;;;;;;;;2047208;28;20265;-62
2022/01/13 04:07:08;;;;;;;160.93;56.13;;;;;;;;;;2047834;29;20226;-62
2022/01/13 04:08:08;;;;;;;173.63;53.40;;;;;;;;;;2045335;28;20271;-62
2022/01/13 04:09:28;;;;;;;170.60;54.77;;;;;;;;;;2046964;29;20221;-62
2022/01/13 04:10:51;;;;;;;164.33;54.67;;;;;;;;;;2031212;29;20275;-61
2022/01/13 04:11:52;;;;;;;173.70;53.50;;;;;;;;;;2044584;29;20183;-60
2022/01/13 04:12:52;;;;;;;152.73;48.10;;;;;;;;;;2048958;28;20433;-62
2022/01/13 04:14:04;;;;;;;150.10;46.87;;;;;;;;;;2048947;28;20184;-63
2022/01/13 04:15:10;;;;;;;140.03;44.43;;;;;;;;;;2046403;29;20362;-63
2022/01/13 04:16:12;;;;;;;168.60;51.43;;;;;;;;;;2048999;28;20446;-63
2022/01/13 04:17:14;;;;;;;175.03;53.13;;;;;;;;;;2047569;29;20548;-64
2022/01/13 04:18:14;;;;;;;178.93;55.23;;;;;;;;;;2044050;29;20887;-61
2022/01/13 04:19:14;;;;;;;174.20;56.13;;;;;;;;;;2044463;29;20468;-61
2022/01/13 04:20:15;;;;;;;172.67;54.03;;;;;;;;;;2041512;29;20611;-63
2022/01/13 04:21:18;;;;;;;170.60;46.53;;;;;;;;;;2042714;29;20211;-62
2022/01/13 04:22:19;;;;;;;157.40;49.53;;;;;;;;;;2045047;29;20179;-61
2022/01/13 04:23:19;;;;;;;147.63;49.57;;;;;;;;;;2049076;28;20190;-62
2022/01/13 04:24:19;;;;;;;172.27;54.00;;;;;;;;;;2049010;28;20250;-63
2022/01/13 04:25:22;;;;;;;177.90;57.63;;;;;;;;;;2044307;28;20211;-63
2022/01/13 04:26:30;;;;;;;182.30;54.90;;;;;;;;;;2044374;29;20175;-60
2022/01/13 04:27:36;;;;;;;194.50;60.30;;;;;;;;;;2047993;28;20186;-57
2022/01/13 04:28:37;;;;;;;179.23;56.63;;;;;;;;;;2048808;29;21047;-63
2022/01/13 04:29:41;;;;;;;146.50;45.57;;;;;;;;;;2048430;28;20186;-60
2022/01/13 04:31:43;;;;;;;170.03;51.33;;;;;;;;;;2047034;28;20503;-61
2022/01/13 04:32:43;;;;;;;174.73;53.43;;;;;;;;;;2048598;28;20167;-62
2022/01/13 04:33:43;;;;;;;172.00;52.97;;;;;;;;;;2046986;28;20533;-60
2022/01/13 04:34:43;;;;;;;146.57;47.93;;;;;;;;;;2048790;28;20194;-61
2022/01/13 04:35:44;;;;;;;145.60;50.00;;;;;;;;;;2046927;28;20300;-61
2022/01/13 04:36:44;;;;;;;186.23;55.73;;;;;;;;;;2046809;28;20258;-61
2022/01/13 04:37:45;;;;;;;170.70;57.00;;;;;;;;;;2048164;28;20261;-59
2022/01/13 04:38:45;;;;;;;171.30;53.73;;;;;;;;;;2042580;28;20187;-62
2022/01/13 04:39:45;;;;;;;150.50;49.67;;;;;;;;;;2045339;29;20176;-61
2022/01/13 04:40:48;;;;;;;190.40;56.90;;;;;;;;;;2048006;29;20178;-61
2022/01/13 04:41:49;;;;;;;169.33;50.00;;;;;;;;;;2046918;28;20233;-62
2022/01/13 04:42:54;;;;;;;173.27;59.07;;;;;;;;;;2048534;28;20437;-62
2022/01/13 04:43:54;;;;;;;198.63;55.97;;;;;;;;;;2047508;28;20241;-62
2022/01/13 04:44:54;;;;;;;168.60;53.53;;;;;;;;;;2048661;28;20236;-62
2022/01/13 04:45:55;;;;;;;159.93;52.00;;;;;;;;;;2048618;28;20266;-61
2022/01/13 04:46:55;;;;;;;175.23;52.80;;;;;;;;;;2048731;28;20602;-62
2022/01/13 04:47:56;;;;;;;152.87;49.93;;;;;;;;;;2048391;28;20858;-61
2022/01/13 04:48:56;;;;;;;198.83;57.73;;;;;;;;;;2048678;28;20206;-60
2022/01/13 04:49:56;;;;;;;189.80;60.63;;;;;;;;;;2044680;28;20510;-61
2022/01/13 04:50:57;;;;;;;189.03;57.70;;;;;;;;;;2048215;28;20175;-58
2022/01/13 04:51:57;;;;;;;174.97;56.60;;;;;;;;;;2042910;28;20187;-61
2022/01/13 04:52:57;;;;;;;177.73;51.50;;;;;;;;;;2048071;28;20217;-62
2022/01/13 04:53:57;;;;;;;183.87;53.80;;;;;;;;;;2044218;29;20266;-57
2022/01/13 04:54:58;;;;;;;180.27;57.17;;;;;;;;;;2047489;28;20170;-63
2022/01/13 04:55:59;;;;;;;186.73;58.83;;;;;;;;;;2043602;29;20179;-58
2022/01/13 04:57:16;;;;;;;167.23;53.20;;;;;;;;;;2046648;29;20237;-60
2022/01/13 04:58:17;;;;;;;194.40;60.53;;;;;;;;;;2042037;28;20218;-62
2022/01/13 04:59:18;;;;;;;193.77;58.87;;;;;;;;;;2047773;28;20198;-61
2022/01/13 05:00:19;;;;;;;182.07;59.20;;;;;;;;;;2048307;28;20640;-62
2022/01/13 05:01:19;;;;;;;180.20;57.90;;;;;;;;;;2048481;28;20179;-62
2022/01/13 05:02:19;;;;;;;192.80;59.20;;;;;;;;;;2049018;28;20183;-63
2022/01/13 05:03:19;;;;;;;189.10;55.07;;;;;;;;;;2044357;28;20175;-63
2022/01/13 05:04:21;;;;;;;176.73;57.03;;;;;;;;;;2053972;28;20266;-63
2022/01/13 05:05:21;;;;;;;192.70;56.10;;;;;;;;;;2050873;28;20175;-62
2022/01/13 05:06:21;;;;;;;165.43;51.57;;;;;;;;;;2047046;29;20175;-59
2022/01/13 05:07:22;;;;;;;184.37;57.43;;;;;;;;;;2043149;28;20186;-61
2022/01/13 05:08:22;;;;;;;174.10;59.90;;;;;;;;;;2054254;28;20197;-63
2022/01/13 05:09:22;;;;;;;204.93;64.53;;;;;;;;;;2055782;28;20265;-61
2022/01/13 05:10:23;;;;;;;179.37;56.33;;;;;;;;;;2048603;28;20201;-61
2022/01/13 05:11:23;;;;;;;183.07;56.47;;;;;;;;;;2047299;28;20179;-63
2022/01/13 05:12:33;;;;;;;155.07;51.73;;;;;;;;;;2047981;29;20187;-61
2022/01/13 05:13:33;;;;;;;166.50;53.43;;;;;;;;;;2048808;29;20545;-62
2022/01/13 05:14:33;;;;;;;161.87;51.73;;;;;;;;;;2047742;28;20174;-61
2022/01/13 05:15:35;;;;;;;163.00;49.80;;;;;;;;;;2048717;28;20287;-62
2022/01/13 05:17:05;;;;;;;160.43;53.57;;;;;;;;;;2046769;28;20179;-63
2022/01/13 05:18:11;;;;;;;168.73;51.07;;;;;;;;;;2047602;28;20285;-63
2022/01/13 05:19:16;;;;;;;174.13;55.07;;;;;;;;;;2046260;29;20421;-63
2022/01/13 05:20:20;;;;;;;177.20;54.90;;;;;;;;;;2040202;29;20166;-62
2022/01/13 05:21:26;;;;;;;184.03;54.03;;;;;;;;;;2046676;29;20435;-64
2022/01/13 05:22:27;;;;;;;225.23;64.40;;;;;;;;;;2048677;29;21069;-61
2022/01/13 05:23:27;;;;;;;220.60;62.73;;;;;;;;;;2048248;28;20425;-63
2022/01/13 05:24:27;;;;;;;201.27;61.17;;;;;;;;;;2048147;28;20171;-62
2022/01/13 05:25:27;;;;;;;257.97;66.67;;;;;;;;;;2048194;28;20257;-62
2022/01/13 05:26:28;;;;;;;230.87;65.20;;;;;;;;;;2039474;29;20566;-63
2022/01/13 05:27:28;;;;;;;225.60;66.57;;;;;;;;;;2047185;28;20735;-63
2022/01/13 05:28:28;;;;;;;243.60;67.47;;;;;;;;;;2045839;28;20866;-61
2022/01/13 05:29:28;;;;;;;215.50;64.90;;;;;;;;;;2047785;28;20178;-62
2022/01/13 05:30:31;;;;;;;197.33;59.13;;;;;;;;;;2047813;28;20170;-62
2022/01/13 05:31:31;;;;;;;207.77;64.10;;;;;;;;;;2045611;28;20550;-60
2022/01/13 05:32:32;;;;;;;221.37;61.90;;;;;;;;;;2047614;29;20257;-63
2022/01/13 05:33:32;;;;;;;209.97;62.17;;;;;;;;;;2048152;28;20209;-60
2022/01/13 05:34:32;;;;;;;213.67;61.70;;;;;;;;;;2048615;28;20257;-62
2022/01/13 05:35:33;;;;;;;208.33;62.23;;;;;;;;;;2048180;28;20205;-60
2022/01/13 05:36:33;;;;;;;218.73;65.77;;;;;;;;;;2048077;28;20187;-63
2022/01/13 05:37:33;;;;;;;204.87;60.33;;;;;;;;;;2047082;28;20209;-61
2022/01/13 05:38:33;;;;;;;203.03;59.43;;;;;;;;;;2047857;29;20647;-62
2022/01/13 05:39:34;;;;;;;166.67;53.93;;;;;;;;;;2048146;29;20245;-64
2022/01/13 05:40:35;;;;;;;185.07;56.40;;;;;;;;;;2048142;28;20214;-62
2022/01/13 05:41:35;;;;;;;215.87;63.80;;;;;;;;;;2047904;28;20210;-64
2022/01/13 05:42:35;;;;;;;236.03;68.63;;;;;;;;;;2048173;28;20183;-62
2022/01/13 05:43:35;;;;;;;187.83;62.40;;;;;;;;;;2048022;28;20174;-63
2022/01/13 05:44:38;;;;;;;267.87;67.97;;;;;;;;;;2047945;28;20289;-62
2022/01/13 05:45:39;;;;;;;248.40;69.60;;;;;;;;;;2048041;28;20230;-60
2022/01/13 05:46:39;;;;;;;188.37;54.53;;;;;;;;;;2048086;28;20248;-62
2022/01/13 05:47:40;;;;;;;239.77;69.30;;;;;;;;;;2048226;28;20186;-63
2022/01/13 05:48:41;;;;;;;226.93;64.80;;;;;;;;;;2048129;28;20221;-61
2022/01/13 05:49:42;;;;;;;230.83;62.63;;;;;;;;;;2041689;28;20168;-62
2022/01/13 05:50:42;;;;;;;233.13;67.20;;;;;;;;;;2047818;28;20229;-56
2022/01/13 05:51:42;;;;;;;233.07;66.67;;;;;;;;;;2046660;29;20265;-62
2022/01/13 05:52:43;;;;;;;223.10;64.30;;;;;;;;;;2047276;29;20648;-62
2022/01/13 05:53:45;;;;;;;244.63;68.53;;;;;;;;;;2048477;29;20186;-63
2022/01/13 05:54:45;;;;;;;218.10;65.57;;;;;;;;;;2047608;28;20270;-63
2022/01/13 05:55:45;;;;;;;226.37;62.10;;;;;;;;;;2048225;29;20186;-64
2022/01/13 05:56:45;;;;;;;248.03;67.67;;;;;;;;;;2043980;28;20234;-64
2022/01/13 05:57:46;;;;;;;224.07;64.47;;;;;;;;;;2048052;28;20807;-63
2022/01/13 05:58:46;;;;;;;212.13;57.90;;;;;;;;;;2046824;28;20171;-63
2022/01/13 05:59:46;;;;;;;226.67;63.80;;;;;;;;;;2047862;28;20241;-64
2022/01/13 06:00:47;;;;;;;245.33;68.10;;;;;;;;;;2046444;28;20179;-63
2022/01/13 06:01:48;;;;;;;239.37;64.13;;;;;;;;;;2043314;29;20180;-59
2022/01/13 06:02:48;;;;;;;229.23;63.10;;;;;;;;;;2048391;28;20269;-60
2022/01/13 06:03:48;;;;;;;207.20;58.60;;;;;;;;;;2049725;28;20175;-64
2022/01/13 06:04:48;;;;;;;209.70;61.50;;;;;;;;;;2049703;28;20170;-63
2022/01/13 06:05:49;;;;;;;239.97;67.93;;;;;;;;;;2043795;29;20202;-63
2022/01/13 06:06:49;;;;;;;231.67;63.73;;;;;;;;;;2048948;28;20206;-61
2022/01/13 06:07:49;;;;;;;203.03;57.63;;;;;;;;;;2049416;28;20206;-60
2022/01/13 06:08:49;;;;;;;235.37;65.97;;;;;;;;;;2043730;29;20687;-62
2022/01/13 06:09:49;;;;;;;233.73;66.40;;;;;;;;;;2046944;29;20175;-62